Flight Track Log - Related Links

Times and Time Zones

All times are in EDT time to prevent confusion due to time zone crossing. See the ASQ5407 flight status page for this flight to view local times or setup timezone preferences in your user account.

Time Position Orientation Groundspeed Altitude Reporting Facility
EDT Latitude Longitude Course Direction KTS MPH feet Rate Location/Type
Tue 10:47:06 PM 33.6333 -84.4000 90° East 149 171 2,400  Level Atlanta TRACON
Tue 10:48:06 PM 33.6333 -84.3333 90° East 236 272 4,200 2,350 Climbing Atlanta TRACON
Tue 10:49:06 PM 33.6333 -84.2500 90° East 267 307 7,100 2,308 Climbing Atlanta TRACON
Tue 10:50:55 PM 33.6083 -84.0836 100° East 290 334 10,700 1,775 Climbing Atlanta Center
Tue 10:51:55 PM 33.5939 -83.9714 99° East 315 362 12,100 1,600 Climbing Atlanta Center
Tue 10:53:00 PM 33.5964 -83.8896 88° East  Level FlightAware
Tue 10:53:55 PM 33.5600 -83.7297 88° East 367 422 15,500  Level Atlanta Center
Tue 10:54:55 PM 33.5514 -83.6050 95° East 373 429 17,000 1,300 Climbing Atlanta Center
Tue 10:55:55 PM 33.5403 -83.4781 96° East 378 435 18,100 1,000 Climbing Atlanta Center
Tue 10:56:55 PM 33.5336 -83.3486 93° East 389 448 19,000 450 Climbing Atlanta Center
Tue 10:57:55 PM 33.5264 -83.1942 93° East 405 466 19,000 -600 Level Atlanta Center
Tue 10:58:55 PM 33.5189 -83.0522 94° East 422 486 17,800 -1,700 Descending Atlanta Center
Tue 10:59:55 PM 33.5114 -82.9153 94° East 417 480 15,600 -2,250 Descending Atlanta Center
Tue 11:00:55 PM 33.5061 -82.7806 93° East 412 474 13,300 -2,300 Descending Atlanta Center
Tue 11:01:55 PM 33.4983 -82.6511 94° East 400 460 11,000 -1,700 Descending Atlanta Center
Tue 11:02:55 PM 33.4908 -82.5417 95° East 365 420 9,900 -1,350 Descending Atlanta Center
Tue 11:03:55 PM 33.4853 -82.4447 94° East 322 371 8,300 -1,600 Descending Atlanta Center
Tue 11:04:55 PM 33.4822 -82.3553 92° East 289 333 6,700 -1,700 Descending Atlanta Center
Tue 11:05:55 PM 33.4767 -82.2656 94° East 270 311 4,900 -1,850 Descending Atlanta Center
Tue 11:06:55 PM 33.4733 -82.1811 93° East 258 297 3,000 -1,550 Descending Atlanta Center
Tue 11:07:55 PM 33.4681 -82.1039 95° East 245 282 1,800 -600 Descending Atlanta Center
Tue 11:08:55 PM 33.4650 -82.0467 94° East 209 241 1,800  Level Atlanta Center
Tue 11:09:55 PM 33.4617 -81.9794 93° East 199 229 1,800  Level Atlanta Center

Login

Don't have an account? Register now (free) for customized features, flight alerts, and more!